createdAt,value
2019-03-28T00:00:11.023Z,74.70
2019-03-28T00:01:11.015Z,75.35
2019-03-28T00:02:11.791Z,75.35
2019-03-28T00:03:11.018Z,74.70
2019-03-28T00:04:11.012Z,74.84
2019-03-28T00:05:10.990Z,75.32
2019-03-28T00:06:10.965Z,75.42
2019-03-28T00:07:10.943Z,75.35
2019-03-28T00:08:12.530Z,75.25
2019-03-28T00:09:10.913Z,75.97
2019-03-28T00:10:10.912Z,75.56
2019-03-28T00:11:10.891Z,76.38
2019-03-28T00:12:10.931Z,76.28
2019-03-28T00:13:10.917Z,75.97
2019-03-28T00:14:10.897Z,76.28
2019-03-28T00:15:10.850Z,75.87
2019-03-28T00:16:10.830Z,76.28
2019-03-28T00:17:10.825Z,75.97
2019-03-28T00:18:10.825Z,76.17
2019-03-28T00:19:10.847Z,76.07
2019-03-28T00:20:10.834Z,76.17
2019-03-28T00:21:10.792Z,76.07
2019-03-28T00:22:10.793Z,76.07
2019-03-28T00:23:10.782Z,76.48
2019-03-28T00:24:10.756Z,76.38
2019-03-28T00:25:10.951Z,76.38
2019-03-28T00:26:10.751Z,76.79
2019-03-28T00:27:10.725Z,77.10
2019-03-28T00:28:11.279Z,77.10
2019-03-28T00:29:10.702Z,77.10
2019-03-28T00:30:10.722Z,77.61
2019-03-28T00:31:10.735Z,77.20
2019-03-28T00:32:10.704Z,77.51
2019-03-28T00:33:10.670Z,77.30
2019-03-28T00:34:10.675Z,77.61
2019-03-28T00:35:10.631Z,77.30
2019-03-28T00:36:10.633Z,77.40
2019-03-28T00:37:10.626Z,77.40
2019-03-28T00:38:10.599Z,77.61
2019-03-28T00:39:10.578Z,77.40
2019-03-28T00:40:10.599Z,77.81
2019-03-28T00:41:10.616Z,77.51
2019-03-28T00:42:10.546Z,77.30
2019-03-28T00:43:10.559Z,76.89
2019-03-28T00:44:10.635Z,77.20
2019-03-28T00:45:10.519Z,77.20
2019-03-28T00:46:10.499Z,77.10
2019-03-28T00:47:11.092Z,76.79
2019-03-28T00:48:10.490Z,76.58
2019-03-28T00:49:10.493Z,76.48
2019-03-28T00:50:10.475Z,76.58
2019-03-28T00:51:10.453Z,76.58
2019-03-28T00:52:10.461Z,76.28
2019-03-28T00:53:10.483Z,75.66
2019-03-28T00:54:10.470Z,76.07
2019-03-28T00:55:11.313Z,76.31
2019-03-28T00:56:10.392Z,76.10
2019-03-28T00:57:10.394Z,76.31
2019-03-28T00:58:10.412Z,76.48
2019-03-28T00:59:10.394Z,76.82
2019-03-28T01:00:10.510Z,76.93
2019-03-28T01:01:10.337Z,77.13
2019-03-28T01:02:10.334Z,77.23
2019-03-28T01:03:11.175Z,77.55
2019-03-28T01:04:10.313Z,77.85
2019-03-28T01:05:10.559Z,77.92
2019-03-28T01:06:10.286Z,77.34
2019-03-28T01:07:10.296Z,78.27
2019-03-28T01:08:11.286Z,78.27
2019-03-28T01:09:10.298Z,77.44
2019-03-28T01:10:10.286Z,77.65
2019-03-28T01:11:10.318Z,77.23
2019-03-28T01:12:10.214Z,77.23
2019-03-28T01:13:10.230Z,77.34
2019-03-28T01:14:10.220Z,77.55
2019-03-28T01:15:10.197Z,77.20
2019-03-28T01:16:10.210Z,77.95
2019-03-28T01:17:10.260Z,78.06
2019-03-28T01:18:10.156Z,77.95
2019-03-28T01:19:10.190Z,77.34
2019-03-28T01:20:10.139Z,78.06
2019-03-28T01:21:10.148Z,78.16
2019-03-28T01:22:10.141Z,78.27
2019-03-28T01:23:10.096Z,77.95
2019-03-28T01:24:10.095Z,78.27
2019-03-28T01:25:10.071Z,77.95
2019-03-28T01:26:10.069Z,78.27
2019-03-28T01:27:10.195Z,77.95
2019-03-28T01:28:10.141Z,77.95
2019-03-28T01:29:10.034Z,77.92
2019-03-28T01:30:10.099Z,77.71
2019-03-28T01:31:10.342Z,77.95
2019-03-28T01:32:10.000Z,77.92
2019-03-28T01:33:09.979Z,77.95
2019-03-28T01:34:10.032Z,78.06
2019-03-28T01:35:09.960Z,77.44
2019-03-28T01:36:09.989Z,77.75
2019-03-28T01:37:09.935Z,77.65
2019-03-28T01:38:09.947Z,77.75
2019-03-28T01:39:10.226Z,77.85
2019-03-28T01:40:09.917Z,78.06
2019-03-28T01:41:09.932Z,78.36
2019-03-28T01:42:09.894Z,77.85
2019-03-28T01:43:10.797Z,77.65
2019-03-28T01:44:09.944Z,77.55
2019-03-28T01:45:09.897Z,77.37
2019-03-28T01:46:09.869Z,77.44
2019-03-28T01:47:09.825Z,77.44
2019-03-28T01:48:09.842Z,77.55
2019-03-28T01:49:09.852Z,78.36
2019-03-28T01:50:09.802Z,77.65
2019-03-28T01:51:09.847Z,77.75
2019-03-28T01:52:09.777Z,78.36
2019-03-28T01:53:09.769Z,77.55
2019-03-28T01:54:09.874Z,78.16
2019-03-28T01:55:09.780Z,78.16
2019-03-28T01:56:09.737Z,78.06
2019-03-28T01:57:11.274Z,78.27
2019-03-28T01:58:09.719Z,78.47
2019-03-28T01:59:09.712Z,77.65
2019-03-28T02:00:09.801Z,77.58
2019-03-28T02:01:09.687Z,78.06
2019-03-28T02:02:09.668Z,78.36
2019-03-28T02:03:09.682Z,77.99
2019-03-28T02:04:09.649Z,77.58
2019-03-28T02:05:09.668Z,78.06
2019-03-28T02:06:09.667Z,77.99
2019-03-28T02:07:09.692Z,78.20
2019-03-28T02:08:09.606Z,78.40
2019-03-28T02:09:09.613Z,78.71
2019-03-28T02:10:09.610Z,78.92
2019-03-28T02:11:09.603Z,79.43
2019-03-28T02:12:09.558Z,78.40
2019-03-28T02:13:09.553Z,78.40
2019-03-28T02:14:09.543Z,78.30
2019-03-28T02:15:09.584Z,78.09
2019-03-28T02:16:09.524Z,78.20
2019-03-28T02:17:09.546Z,77.89
2019-03-28T02:18:09.524Z,78.50
2019-03-28T02:19:09.482Z,78.50
2019-03-28T02:20:10.313Z,79.22
2019-03-28T02:21:09.719Z,78.81
2019-03-28T02:22:09.447Z,79.02
2019-03-28T02:23:10.376Z,78.92
2019-03-28T02:24:09.486Z,78.81
2019-03-28T02:25:09.425Z,79.02
2019-03-28T02:26:09.551Z,78.92
2019-03-28T02:27:09.395Z,79.33
2019-03-28T02:28:09.380Z,79.53
2019-03-28T02:29:09.439Z,79.43
2019-03-28T02:30:09.353Z,79.43
2019-03-28T02:31:09.345Z,79.33
2019-03-28T02:32:09.344Z,79.22
2019-03-28T02:33:09.343Z,79.02
2019-03-28T02:34:09.321Z,78.92
2019-03-28T02:35:09.348Z,79.43
2019-03-28T02:36:09.319Z,79.53
2019-03-28T02:37:09.293Z,79.74
2019-03-28T02:38:09.275Z,79.63
2019-03-28T02:39:09.267Z,79.12
2019-03-28T02:40:09.312Z,79.02
2019-03-28T02:41:09.236Z,79.12
2019-03-28T02:42:09.232Z,79.02
2019-03-28T02:43:09.237Z,78.92
2019-03-28T02:44:09.210Z,79.53
2019-03-28T02:45:09.204Z,79.33
2019-03-28T02:46:09.224Z,79.63
2019-03-28T02:47:09.168Z,79.94
2019-03-28T02:48:09.211Z,79.84
2019-03-28T02:49:09.160Z,79.94
2019-03-28T02:50:09.271Z,79.63
2019-03-28T02:51:09.163Z,79.84
2019-03-28T02:52:09.147Z,80.66
2019-03-28T02:53:09.204Z,80.25
2019-03-28T02:54:09.132Z,80.56
2019-03-28T02:55:09.116Z,80.15
2019-03-28T02:56:09.075Z,80.35
2019-03-28T02:57:09.064Z,80.15
2019-03-28T02:58:09.064Z,80.56
2019-03-28T02:59:09.047Z,80.46
2019-03-28T03:00:09.066Z,80.46
2019-03-28T03:01:09.026Z,80.46
2019-03-28T03:02:09.002Z,80.46
2019-03-28T03:03:08.990Z,80.46
2019-03-28T03:04:09.013Z,80.15
2019-03-28T03:05:09.033Z,80.56
2019-03-28T03:06:09.070Z,80.35
2019-03-28T03:07:08.974Z,80.56
2019-03-28T03:08:08.956Z,80.05
2019-03-28T03:09:08.974Z,80.56
2019-03-28T03:10:08.917Z,80.56
2019-03-28T03:11:09.637Z,80.35
2019-03-28T03:12:08.943Z,80.66
2019-03-28T03:13:08.882Z,80.25
2019-03-28T03:14:08.931Z,80.05
2019-03-28T03:15:08.902Z,80.66
2019-03-28T03:16:08.849Z,80.56
2019-03-28T03:17:08.858Z,80.56
2019-03-28T03:18:08.861Z,80.66
2019-03-28T03:19:08.829Z,80.97
2019-03-28T03:20:08.842Z,80.97
2019-03-28T03:21:09.884Z,80.97
2019-03-28T03:22:08.791Z,80.87
2019-03-28T03:23:08.820Z,80.56
2019-03-28T03:24:08.776Z,81.42
2019-03-28T03:25:08.772Z,81.28
2019-03-28T03:26:08.744Z,81.59
2019-03-28T03:27:09.323Z,81.69
2019-03-28T03:28:08.730Z,81.69
2019-03-28T03:29:08.764Z,81.38
2019-03-28T03:30:08.794Z,81.48
2019-03-28T03:31:08.769Z,81.28
2019-03-28T03:32:08.686Z,81.48
2019-03-28T03:33:09.448Z,81.90
2019-03-28T03:34:08.663Z,82.20
2019-03-28T03:35:08.701Z,81.59
2019-03-28T03:36:08.639Z,81.38
2019-03-28T03:37:08.641Z,81.59
2019-03-28T03:38:08.620Z,81.38
2019-03-28T03:39:08.601Z,81.28
2019-03-28T03:40:08.697Z,81.28
2019-03-28T03:41:08.625Z,81.21
2019-03-28T03:42:08.585Z,80.87
2019-03-28T03:43:08.556Z,81.52
2019-03-28T03:44:08.549Z,81.62
2019-03-28T03:45:09.337Z,81.52
2019-03-28T03:46:08.690Z,82.00
2019-03-28T03:47:08.537Z,82.04
2019-03-28T03:48:08.484Z,81.93
2019-03-28T03:49:08.537Z,82.04
2019-03-28T03:50:08.490Z,82.24
2019-03-28T03:51:08.453Z,82.55
2019-03-28T03:52:08.499Z,82.34
2019-03-28T03:53:08.449Z,82.31
2019-03-28T03:54:08.442Z,81.83
2019-03-28T03:55:08.490Z,82.04
2019-03-28T03:56:08.408Z,82.00
2019-03-28T03:57:08.394Z,82.24
2019-03-28T03:58:16.383Z,82.10
2019-03-28T03:59:09.381Z,81.73
2019-03-28T04:00:08.366Z,81.83
2019-03-28T04:01:08.353Z,81.62
2019-03-28T04:02:08.366Z,81.83
2019-03-28T04:03:08.381Z,82.34
2019-03-28T04:04:08.404Z,82.04
2019-03-28T04:05:08.323Z,81.73
2019-03-28T04:06:08.294Z,81.79
2019-03-28T04:07:08.298Z,82.04
2019-03-28T04:08:08.391Z,81.62
2019-03-28T04:09:08.309Z,82.34
2019-03-28T04:10:08.245Z,82.04
2019-03-28T04:11:08.247Z,82.55
2019-03-28T04:12:08.260Z,82.55
2019-03-28T04:13:08.229Z,82.51
2019-03-28T04:14:08.212Z,82.45
2019-03-28T04:15:08.250Z,82.55
2019-03-28T04:16:08.207Z,82.55
2019-03-28T04:17:08.191Z,82.34
2019-03-28T04:18:08.180Z,82.34
2019-03-28T04:19:08.176Z,81.83
2019-03-28T04:20:08.147Z,81.93
2019-03-28T04:21:08.162Z,81.83
2019-03-28T04:22:08.242Z,82.04
2019-03-28T04:23:08.291Z,81.83
2019-03-28T04:24:08.098Z,82.04
2019-03-28T04:25:08.090Z,82.14
2019-03-28T04:26:08.167Z,82.24
2019-03-28T04:27:08.068Z,82.34
2019-03-28T04:28:08.054Z,82.04
2019-03-28T04:29:08.054Z,82.76
2019-03-28T04:30:08.048Z,82.34
2019-03-28T04:31:08.112Z,82.24
2019-03-28T04:32:08.016Z,82.34
2019-03-28T04:33:08.066Z,82.45
2019-03-28T04:34:09.389Z,82.45
2019-03-28T04:35:07.988Z,82.55
2019-03-28T04:36:07.988Z,82.24
2019-03-28T04:37:07.998Z,82.45
2019-03-28T04:38:08.014Z,82.55
2019-03-28T04:39:07.972Z,82.55
2019-03-28T04:40:08.665Z,82.31
2019-03-28T04:41:07.922Z,82.45
2019-03-28T04:42:07.967Z,82.76
2019-03-28T04:43:07.916Z,82.24
2019-03-28T04:44:07.932Z,81.83
2019-03-28T04:45:07.860Z,81.42
2019-03-28T04:46:07.862Z,82.24
2019-03-28T04:47:07.840Z,82.10
2019-03-28T04:48:07.826Z,81.62
2019-03-28T04:49:07.874Z,81.62
2019-03-28T04:50:07.813Z,81.83
2019-03-28T04:51:07.805Z,82.04
2019-03-28T04:52:07.804Z,81.73
2019-03-28T04:53:07.868Z,81.73
2019-03-28T04:54:09.871Z,81.62
2019-03-28T04:55:07.796Z,81.42
2019-03-28T04:56:07.753Z,82.24
2019-03-28T04:57:07.758Z,82.04
2019-03-28T04:58:07.744Z,81.52
2019-03-28T04:59:07.766Z,81.62
2019-03-28T05:00:08.375Z,81.32
2019-03-28T05:01:07.718Z,81.42
2019-03-28T05:02:07.681Z,81.83
2019-03-28T05:03:07.677Z,82.04
2019-03-28T05:04:07.670Z,82.55
2019-03-28T05:05:07.687Z,82.55
2019-03-28T05:06:07.770Z,81.83
2019-03-28T05:07:07.659Z,82.55
2019-03-28T05:08:08.383Z,82.45
2019-03-28T05:09:07.737Z,82.55
2019-03-28T05:10:07.619Z,82.45
2019-03-28T05:11:07.608Z,82.55
2019-03-28T05:12:07.608Z,82.45
2019-03-28T05:13:08.432Z,82.45
2019-03-28T05:14:07.558Z,82.55
2019-03-28T05:15:07.539Z,82.76
2019-03-28T05:16:07.517Z,82.04
2019-03-28T05:17:14.986Z,81.62
2019-03-28T05:18:07.519Z,81.42
2019-03-28T05:19:07.502Z,81.83
2019-03-28T05:20:07.518Z,81.38
2019-03-28T05:21:07.508Z,82.34
2019-03-28T05:22:07.624Z,82.76
2019-03-28T05:23:07.457Z,82.24
2019-03-28T05:24:07.486Z,82.41
2019-03-28T05:25:08.377Z,82.51
2019-03-28T05:26:07.457Z,81.90
2019-03-28T05:27:07.518Z,82.10
2019-03-28T05:28:07.418Z,81.11
2019-03-28T05:29:07.411Z,81.73
2019-03-28T05:30:07.402Z,82.34
2019-03-28T05:31:07.825Z,80.80
2019-03-28T05:32:07.362Z,81.01
2019-03-28T05:33:07.419Z,81.32
2019-03-28T05:34:08.320Z,81.21
2019-03-28T05:35:07.343Z,81.01
2019-03-28T05:36:07.313Z,80.80
2019-03-28T05:37:07.313Z,81.38
2019-03-28T05:38:07.496Z,81.42
2019-03-28T05:39:07.294Z,81.32
2019-03-28T05:40:07.326Z,81.28
2019-03-28T05:41:07.285Z,81.42
2019-03-28T05:42:07.251Z,81.01
2019-03-28T05:43:07.224Z,82.14
2019-03-28T05:44:07.214Z,82.24
2019-03-28T05:45:07.201Z,81.62
2019-03-28T05:46:07.236Z,81.32
2019-03-28T05:47:07.201Z,81.11
2019-03-28T05:48:07.279Z,81.01
2019-03-28T05:49:07.276Z,80.60
2019-03-28T05:50:07.151Z,80.80
2019-03-28T05:51:07.180Z,80.80
2019-03-28T05:52:07.122Z,80.39
2019-03-28T05:53:07.166Z,81.01
2019-03-28T05:54:07.129Z,80.91
2019-03-28T05:55:07.101Z,81.11
2019-03-28T05:56:07.099Z,81.32
2019-03-28T05:57:07.076Z,81.42
2019-03-28T05:58:09.588Z,81.42
2019-03-28T05:59:11.086Z,81.42
2019-03-28T06:00:07.051Z,81.52
2019-03-28T06:01:07.031Z,81.52
2019-03-28T06:02:07.024Z,81.38
2019-03-28T06:03:07.052Z,81.18
2019-03-28T06:04:07.085Z,81.69
2019-03-28T06:05:07.127Z,81.38
2019-03-28T06:06:06.967Z,81.28
2019-03-28T06:07:08.815Z,81.48
2019-03-28T06:08:06.977Z,81.38
2019-03-28T06:09:06.955Z,81.48
2019-03-28T06:10:06.941Z,81.48
2019-03-28T06:11:06.919Z,81.69
2019-03-28T06:12:06.933Z,81.48
2019-03-28T06:13:06.924Z,81.28
2019-03-28T06:14:06.928Z,81.28
2019-03-28T06:15:06.909Z,81.48
2019-03-28T06:16:06.862Z,81.59
2019-03-28T06:17:06.908Z,81.18
2019-03-28T06:18:06.830Z,81.18
2019-03-28T06:19:06.832Z,81.59
2019-03-28T06:20:06.822Z,81.69
2019-03-28T06:21:06.875Z,81.18
2019-03-28T06:22:06.859Z,81.04
2019-03-28T06:23:06.790Z,82.06
2019-03-28T06:24:06.851Z,81.69
2019-03-28T06:25:06.779Z,82.62
2019-03-28T06:26:06.740Z,81.90
2019-03-28T06:27:07.494Z,81.04
2019-03-28T06:28:06.713Z,81.96
2019-03-28T06:29:08.555Z,81.04
2019-03-28T06:30:06.716Z,81.55
2019-03-28T06:31:06.688Z,81.04
2019-03-28T06:32:06.687Z,81.14
2019-03-28T06:33:06.701Z,80.83
2019-03-28T06:34:06.794Z,80.93
2019-03-28T06:35:06.658Z,80.83
2019-03-28T06:36:06.646Z,80.93
2019-03-28T06:37:06.696Z,80.83
2019-03-28T06:38:06.623Z,80.83
2019-03-28T06:39:06.647Z,80.63
2019-03-28T06:40:06.616Z,80.83
2019-03-28T06:41:06.590Z,80.79
2019-03-28T06:42:06.764Z,80.52
2019-03-28T06:43:06.579Z,80.93
2019-03-28T06:44:06.571Z,80.52
2019-03-28T06:45:06.541Z,80.32
2019-03-28T06:46:06.545Z,80.42
2019-03-28T06:47:06.527Z,80.38
2019-03-28T06:48:06.558Z,80.42
2019-03-28T06:49:06.498Z,80.58
2019-03-28T06:50:06.501Z,80.38
2019-03-28T06:51:06.483Z,80.58
2019-03-28T06:52:06.459Z,80.69
2019-03-28T06:53:06.458Z,80.38
2019-03-28T06:54:06.477Z,80.49
2019-03-28T06:55:06.455Z,80.38
2019-03-28T06:56:06.422Z,80.69
2019-03-28T06:57:06.399Z,79.87
2019-03-28T06:58:06.515Z,80.28
2019-03-28T06:59:06.374Z,79.56
2019-03-28T07:00:06.389Z,79.56
2019-03-28T07:01:06.380Z,79.15
2019-03-28T07:02:06.342Z,79.22
2019-03-28T07:03:06.331Z,79.01
2019-03-28T07:04:06.330Z,79.15
2019-03-28T07:05:06.329Z,79.46
2019-03-28T07:06:06.329Z,78.74
2019-03-28T07:07:06.955Z,78.70
2019-03-28T07:08:06.338Z,78.91
2019-03-28T07:09:06.270Z,78.70
2019-03-28T07:10:06.254Z,78.09
2019-03-28T07:11:06.279Z,78.39
2019-03-28T07:12:06.257Z,78.39
2019-03-28T07:13:06.242Z,78.29
2019-03-28T07:14:06.365Z,78.81
2019-03-28T07:15:06.217Z,79.22
2019-03-28T07:16:06.192Z,78.91
2019-03-28T07:17:06.255Z,79.11
2019-03-28T07:18:06.184Z,78.39
2019-03-28T07:19:06.163Z,78.36
2019-03-28T07:20:08.868Z,77.58
2019-03-28T07:21:06.141Z,77.84
2019-03-28T07:22:06.161Z,78.16
2019-03-28T07:23:06.157Z,77.37
2019-03-28T07:24:06.105Z,77.33
2019-03-28T07:25:06.170Z,77.33
2019-03-28T07:26:06.098Z,77.23
2019-03-28T07:27:06.084Z,77.33
2019-03-28T07:28:06.650Z,77.33
2019-03-28T07:29:06.050Z,77.44
2019-03-28T07:30:06.092Z,77.33
2019-03-28T07:31:06.038Z,77.03
2019-03-28T07:32:06.028Z,77.33
2019-03-28T07:33:06.019Z,76.20
2019-03-28T07:34:05.996Z,76.20
2019-03-28T07:35:05.984Z,76.62
2019-03-28T07:36:06.012Z,76.51
2019-03-28T07:37:05.960Z,75.69
2019-03-28T07:38:06.901Z,76.10
2019-03-28T07:39:05.950Z,76.62
2019-03-28T07:40:05.934Z,76.20
2019-03-28T07:41:06.069Z,75.49
2019-03-28T07:42:05.938Z,74.98
2019-03-28T07:43:05.925Z,74.87
2019-03-28T07:44:05.896Z,75.28
2019-03-28T07:45:05.931Z,75.08
2019-03-28T07:46:05.903Z,74.98
2019-03-28T07:47:05.856Z,75.18
2019-03-28T07:48:05.848Z,75.18
2019-03-28T07:49:05.832Z,74.57
2019-03-28T07:50:05.873Z,75.38
2019-03-28T07:51:05.863Z,75.18
2019-03-28T07:52:05.793Z,74.94
2019-03-28T07:53:05.788Z,74.94
2019-03-28T07:54:05.787Z,74.73
2019-03-28T07:55:05.890Z,74.60
2019-03-28T07:56:05.753Z,74.32
2019-03-28T07:57:05.902Z,74.73
2019-03-28T07:58:07.505Z,73.88
2019-03-28T07:59:05.718Z,74.70
2019-03-28T08:00:05.754Z,73.57
2019-03-28T08:01:05.718Z,72.96
2019-03-28T08:02:05.709Z,73.06
2019-03-28T08:03:05.682Z,73.47
2019-03-28T08:04:05.695Z,72.96
2019-03-28T08:05:05.655Z,73.64
2019-03-28T08:06:05.651Z,73.06
2019-03-28T08:07:05.636Z,73.03
2019-03-28T08:08:05.629Z,73.27
2019-03-28T08:09:05.617Z,73.44
2019-03-28T08:10:05.821Z,72.92
2019-03-28T08:11:05.601Z,73.33
2019-03-28T08:12:05.577Z,73.44
2019-03-28T08:13:05.639Z,73.95
2019-03-28T08:14:05.569Z,73.54
2019-03-28T08:15:05.538Z,73.61
2019-03-28T08:16:05.610Z,72.72
2019-03-28T08:17:05.553Z,72.72
2019-03-28T08:18:05.522Z,72.61
2019-03-28T08:19:08.037Z,72.82
2019-03-28T08:20:05.516Z,72.72
2019-03-28T08:21:05.593Z,72.82
2019-03-28T08:22:05.474Z,72.82
2019-03-28T08:23:05.475Z,72.92
2019-03-28T08:24:05.524Z,73.03
2019-03-28T08:25:09.544Z,72.92
2019-03-28T08:26:06.511Z,72.72
2019-03-28T08:27:05.464Z,73.03
2019-03-28T08:28:05.416Z,72.92
2019-03-28T08:29:05.450Z,72.82
2019-03-28T08:30:17.526Z,72.41
2019-03-28T08:31:06.396Z,72.72
2019-03-28T08:32:05.345Z,72.52
2019-03-28T08:33:05.381Z,72.72
2019-03-28T08:34:06.425Z,72.52
2019-03-28T08:35:05.360Z,72.61
2019-03-28T08:36:05.318Z,72.72
2019-03-28T08:37:05.299Z,72.72
2019-03-28T08:38:05.306Z,72.69
2019-03-28T08:39:05.287Z,72.69
2019-03-28T08:40:05.272Z,72.89
2019-03-28T08:41:07.070Z,71.97
2019-03-28T08:42:05.289Z,72.99
2019-03-28T08:43:05.242Z,72.58
2019-03-28T08:44:07.271Z,72.38
2019-03-28T08:45:05.225Z,72.58
2019-03-28T08:46:08.525Z,72.55
2019-03-28T08:47:06.352Z,73.36
2019-03-28T08:48:05.193Z,72.65
2019-03-28T08:49:05.180Z,72.65
2019-03-28T08:50:05.167Z,72.82
2019-03-28T08:51:05.198Z,72.31
2019-03-28T08:52:05.163Z,71.19
2019-03-28T08:53:05.219Z,70.37
2019-03-28T08:54:05.126Z,70.88
2019-03-28T08:55:05.133Z,71.12
2019-03-28T08:56:05.147Z,71.29
2019-03-28T08:57:05.088Z,71.59
2019-03-28T08:58:05.076Z,72.52
2019-03-28T08:59:05.064Z,71.39
2019-03-28T09:00:05.090Z,71.08
2019-03-28T09:01:05.968Z,71.19
2019-03-28T09:02:05.229Z,70.43
2019-03-28T09:03:05.026Z,70.88
2019-03-28T09:04:05.004Z,70.13
2019-03-28T09:05:05.026Z,70.16
2019-03-28T09:06:04.987Z,70.43
2019-03-28T09:07:04.964Z,69.85
2019-03-28T09:08:04.981Z,69.85
2019-03-28T09:09:04.944Z,70.34
2019-03-28T09:10:04.972Z,69.21
2019-03-28T09:11:04.957Z,69.85
2019-03-28T09:12:04.902Z,69.34
2019-03-28T09:13:04.904Z,69.52
2019-03-28T09:14:04.996Z,69.42
2019-03-28T09:15:04.886Z,68.90
2019-03-28T09:16:04.906Z,69.21
2019-03-28T09:17:04.882Z,69.45
2019-03-28T09:18:04.862Z,69.42
2019-03-28T09:19:04.834Z,69.52
2019-03-28T09:20:04.820Z,69.52
2019-03-28T09:21:04.821Z,69.62
2019-03-28T09:22:04.817Z,69.31
2019-03-28T09:23:04.794Z,69.07
2019-03-28T09:24:04.788Z,68.80
2019-03-28T09:25:04.775Z,68.97
2019-03-28T09:26:04.927Z,68.57
2019-03-28T09:27:04.773Z,68.16
2019-03-28T09:28:04.741Z,68.36
2019-03-28T09:29:04.761Z,68.66
2019-03-28T09:30:04.899Z,68.36
2019-03-28T09:31:04.707Z,67.24
2019-03-28T09:32:04.739Z,67.34
2019-03-28T09:33:04.799Z,67.03
2019-03-28T09:34:04.673Z,67.13
2019-03-28T09:35:04.665Z,66.52
2019-03-28T09:36:04.715Z,67.13
2019-03-28T09:37:04.690Z,66.93
2019-03-28T09:38:04.631Z,67.24
2019-03-28T09:39:04.652Z,67.44
2019-03-28T09:40:04.624Z,66.52
2019-03-28T09:41:04.597Z,67.13
2019-03-28T09:42:04.578Z,67.24
2019-03-28T09:43:04.569Z,67.44
2019-03-28T09:44:04.586Z,66.52
2019-03-28T09:45:04.558Z,66.93
2019-03-28T09:46:04.540Z,66.83
2019-03-28T09:47:04.526Z,66.90
2019-03-28T09:48:04.520Z,66.49
2019-03-28T09:49:04.525Z,66.69
2019-03-28T09:50:04.490Z,66.28
2019-03-28T09:51:04.486Z,66.49
2019-03-28T09:52:04.474Z,66.28
2019-03-28T09:53:04.493Z,65.98
2019-03-28T09:54:04.466Z,66.49
2019-03-28T09:55:04.445Z,66.59
2019-03-28T09:56:04.432Z,66.86
2019-03-28T09:57:04.586Z,66.25
2019-03-28T09:58:04.402Z,66.15
2019-03-28T09:59:04.415Z,65.84
2019-03-28T10:00:04.452Z,65.61
2019-03-28T10:01:04.365Z,65.41
2019-03-28T10:02:04.413Z,64.69
2019-03-28T10:03:04.353Z,65.07
2019-03-28T10:04:06.466Z,65.17
2019-03-28T10:05:04.328Z,64.97
2019-03-28T10:06:04.316Z,64.97
2019-03-28T10:07:04.320Z,64.87
2019-03-28T10:08:04.297Z,63.95
2019-03-28T10:09:04.292Z,63.61
2019-03-28T10:10:04.365Z,63.10
2019-03-28T10:11:04.267Z,63.20
2019-03-28T10:12:04.263Z,62.39
2019-03-28T10:13:04.243Z,61.88
2019-03-28T10:14:04.239Z,62.08
2019-03-28T10:15:04.247Z,62.49
2019-03-28T10:16:04.411Z,63.13
2019-03-28T10:17:04.195Z,63.41
2019-03-28T10:18:04.214Z,62.32
2019-03-28T10:19:04.939Z,63.13
2019-03-28T10:20:05.710Z,62.93
2019-03-28T10:21:04.148Z,63.31
2019-03-28T10:22:04.174Z,63.31
2019-03-28T10:23:04.139Z,63.20
2019-03-28T10:24:04.110Z,63.10
2019-03-28T10:25:04.107Z,62.26
2019-03-28T10:26:04.113Z,61.95
2019-03-28T10:27:04.091Z,61.85
2019-03-28T10:28:04.117Z,62.84
2019-03-28T10:29:04.077Z,62.02
2019-03-28T10:30:04.050Z,62.13
2019-03-28T10:31:15.893Z,62.54
2019-03-28T10:32:05.088Z,62.02
2019-03-28T10:33:04.091Z,61.72
2019-03-28T10:34:04.066Z,61.38
2019-03-28T10:35:06.823Z,61.00
2019-03-28T10:36:03.996Z,61.00
2019-03-28T10:37:03.974Z,60.91
2019-03-28T10:38:03.954Z,61.31
2019-03-28T10:39:03.953Z,61.21
2019-03-28T10:40:04.149Z,61.41
2019-03-28T10:41:03.941Z,61.41
2019-03-28T10:42:03.921Z,61.41
2019-03-28T10:43:03.917Z,61.52
2019-03-28T10:44:03.911Z,61.52
2019-03-28T10:45:03.890Z,60.91
2019-03-28T10:46:03.907Z,60.47
2019-03-28T10:47:05.040Z,60.57
2019-03-28T10:48:03.849Z,59.86
2019-03-28T10:49:03.853Z,59.28
2019-03-28T10:50:04.421Z,58.76
2019-03-28T10:51:03.855Z,59.68
2019-03-28T10:52:04.177Z,59.51
2019-03-28T10:53:03.790Z,59.68
2019-03-28T10:54:03.780Z,59.48
2019-03-28T10:55:03.797Z,59.48
2019-03-28T10:56:03.837Z,59.28
2019-03-28T10:57:13.507Z,59.51
2019-03-28T10:58:17.740Z,59.41
2019-03-28T10:59:04.738Z,60.32
2019-03-28T11:00:03.721Z,60.53
2019-03-28T11:01:03.713Z,58.59
2019-03-28T11:02:03.698Z,59.51
2019-03-28T11:03:04.791Z,60.02
2019-03-28T11:04:03.678Z,59.48
2019-03-28T11:05:03.695Z,59.58
2019-03-28T11:06:03.663Z,60.39
2019-03-28T11:07:03.638Z,60.80
2019-03-28T11:09:12.411Z,59.78
2019-03-28T11:10:12.377Z,59.78
2019-03-28T11:11:12.376Z,59.28
2019-03-28T11:12:12.355Z,59.28
2019-03-28T11:13:12.344Z,59.78
2019-03-28T11:14:12.364Z,59.38
2019-03-28T11:15:12.374Z,60.09
2019-03-28T11:16:15.071Z,59.89
2019-03-28T11:17:12.305Z,59.28
2019-03-28T11:18:12.301Z,59.07
2019-03-28T11:19:15.577Z,59.99
2019-03-28T11:20:12.372Z,60.06
2019-03-28T11:21:12.296Z,59.45
2019-03-28T11:22:12.283Z,58.44
2019-03-28T11:23:12.246Z,57.92
2019-03-28T11:24:12.253Z,58.23
2019-03-28T11:25:12.215Z,58.46
2019-03-28T11:26:12.216Z,58.03
2019-03-28T11:27:12.223Z,58.26
2019-03-28T11:28:12.183Z,57.85
2019-03-28T11:29:12.173Z,58.46
2019-03-28T11:30:12.171Z,59.17
2019-03-28T11:31:12.148Z,59.38
2019-03-28T11:32:12.173Z,59.68
2019-03-28T11:33:12.163Z,59.07
2019-03-28T11:34:12.120Z,58.76
2019-03-28T11:35:12.109Z,58.87
2019-03-28T11:36:12.240Z,58.05
2019-03-28T11:37:25.471Z,58.76
2019-03-28T11:38:13.075Z,59.41
2019-03-28T11:39:12.075Z,58.80
2019-03-28T11:40:12.698Z,58.69
2019-03-28T11:41:12.048Z,59.71
2019-03-28T11:42:12.072Z,58.69
2019-03-28T11:43:12.024Z,58.80
2019-03-28T11:44:12.197Z,59.10
2019-03-28T11:45:12.012Z,59.20
2019-03-28T11:46:11.986Z,59.30
2019-03-28T11:47:12.001Z,59.30
2019-03-28T11:48:11.999Z,59.17
2019-03-28T11:49:11.963Z,58.87
2019-03-28T11:50:11.967Z,58.56
2019-03-28T11:51:11.936Z,58.97
2019-03-28T11:52:11.936Z,58.67
2019-03-28T11:53:11.915Z,58.26
2019-03-28T11:54:11.906Z,58.26
2019-03-28T11:55:11.899Z,59.17
2019-03-28T11:56:11.903Z,58.13
2019-03-28T11:57:11.867Z,58.15
2019-03-28T11:58:11.904Z,57.75
2019-03-28T11:59:11.853Z,58.05
2019-03-28T12:00:11.990Z,58.46
2019-03-28T12:01:11.826Z,58.26
2019-03-28T12:02:19.594Z,58.15
2019-03-28T12:03:12.807Z,58.87
2019-03-28T12:04:11.792Z,59.05
2019-03-28T12:05:11.778Z,58.64
2019-03-28T12:06:11.821Z,58.74
2019-03-28T12:07:11.770Z,59.35
2019-03-28T12:08:11.754Z,58.92
2019-03-28T12:09:12.268Z,58.81
2019-03-28T12:10:11.728Z,59.42
2019-03-28T12:11:11.711Z,59.32
2019-03-28T12:12:11.739Z,58.71
2019-03-28T12:13:11.694Z,57.49
2019-03-28T12:14:11.682Z,57.49
2019-03-28T12:15:11.672Z,57.16
2019-03-28T12:16:11.678Z,56.68
2019-03-28T12:17:11.672Z,57.49
2019-03-28T12:18:11.634Z,56.77
2019-03-28T12:19:11.683Z,57.39
2019-03-28T12:20:11.618Z,57.16
2019-03-28T12:21:11.602Z,56.07
2019-03-28T12:22:11.619Z,55.86
2019-03-28T12:23:11.594Z,56.50
2019-03-28T12:24:11.561Z,56.90
2019-03-28T12:25:11.585Z,56.60
2019-03-28T12:26:11.552Z,56.09
2019-03-28T12:27:11.539Z,56.52
2019-03-28T12:28:11.563Z,56.50
2019-03-28T12:29:11.512Z,55.81
2019-03-28T12:30:11.512Z,56.09
2019-03-28T12:31:11.529Z,56.20
2019-03-28T12:32:14.164Z,57.01
2019-03-28T12:33:11.471Z,56.50
2019-03-28T12:34:11.472Z,56.47
2019-03-28T12:35:11.466Z,56.27
2019-03-28T12:36:11.470Z,56.37
2019-03-28T12:37:11.420Z,56.47
2019-03-28T12:38:11.422Z,55.33
2019-03-28T12:39:11.397Z,55.63
2019-03-28T12:40:11.428Z,54.85
2019-03-28T12:41:11.380Z,55.46
2019-03-28T12:42:11.412Z,55.53
2019-03-28T12:43:11.387Z,55.73
2019-03-28T12:44:11.347Z,55.53
2019-03-28T12:45:11.360Z,55.43
2019-03-28T12:46:11.409Z,54.59
2019-03-28T12:47:11.317Z,54.82
2019-03-28T12:48:11.302Z,55.10
2019-03-28T12:49:11.340Z,55.10
2019-03-28T12:50:11.286Z,54.49
2019-03-28T12:51:11.314Z,54.18
2019-03-28T12:52:11.305Z,54.16
2019-03-28T12:53:11.242Z,54.46